sensor_id;sensor_type;location;lat;lon;timestamp;temperature;humidity
44271;DHT22;29963;44.594;11.368;2024-02-14T00:01:31;9.00;99.90
44271;DHT22;29963;44.594;11.368;2024-02-14T00:03:56;8.90;99.90
44271;DHT22;29963;44.594;11.368;2024-02-14T00:06:22;8.90;99.90
44271;DHT22;29963;44.594;11.368;2024-02-14T00:08:49;8.90;99.90
44271;DHT22;29963;44.594;11.368;2024-02-14T00:11:14;8.70;99.90
44271;DHT22;29963;44.594;11.368;2024-02-14T00:13:40;8.80;99.90
44271;DHT22;29963;44.594;11.368;2024-02-14T00:16:06;8.80;99.90
44271;DHT22;29963;44.594;11.368;2024-02-14T00:18:32;8.70;99.90
44271;DHT22;29963;44.594;11.368;2024-02-14T00:20:58;8.70;99.90
44271;DHT22;29963;44.594;11.368;2024-02-14T00:23:23;8.70;99.90
44271;DHT22;29963;44.594;11.368;2024-02-14T00:25:49;8.70;99.90
44271;DHT22;29963;44.594;11.368;2024-02-14T00:28:15;8.70;99.90
44271;DHT22;29963;44.594;11.368;2024-02-14T00:30:40;8.70;99.90
44271;DHT22;29963;44.594;11.368;2024-02-14T00:33:06;8.70;99.90
44271;DHT22;29963;44.594;11.368;2024-02-14T00:35:32;8.70;99.90
44271;DHT22;29963;44.594;11.368;2024-02-14T00:37:57;8.70;99.90
44271;DHT22;29963;44.594;11.368;2024-02-14T00:40:23;8.70;99.90
44271;DHT22;29963;44.594;11.368;2024-02-14T00:42:49;8.70;99.90
44271;DHT22;29963;44.594;11.368;2024-02-14T00:45:14;8.80;99.90
44271;DHT22;29963;44.594;11.368;2024-02-14T00:47:40;8.80;99.90
44271;DHT22;29963;44.594;11.368;2024-02-14T00:50:06;8.90;99.90
44271;DHT22;29963;44.594;11.368;2024-02-14T00:52:35;8.80;99.90
44271;DHT22;29963;44.594;11.368;2024-02-14T00:55:00;8.70;99.90
44271;DHT22;29963;44.594;11.368;2024-02-14T00:57:29;8.70;99.90
44271;DHT22;29963;44.594;11.368;2024-02-14T00:59:54;8.60;99.90
44271;DHT22;29963;44.594;11.368;2024-02-14T01:02:22;8.60;99.90
44271;DHT22;29963;44.594;11.368;2024-02-14T01:04:47;8.50;99.90
44271;DHT22;29963;44.594;11.368;2024-02-14T01:07:13;8.50;99.90
44271;DHT22;29963;44.594;11.368;2024-02-14T01:09:39;8.50;99.90
44271;DHT22;29963;44.594;11.368;2024-02-14T01:12:04;8.50;99.90
44271;DHT22;29963;44.594;11.368;2024-02-14T01:14:32;8.40;99.90
44271;DHT22;29963;44.594;11.368;2024-02-14T01:16:58;8.40;99.90
44271;DHT22;29963;44.594;11.368;2024-02-14T01:19:24;8.30;99.90
44271;DHT22;29963;44.594;11.368;2024-02-14T01:21:54;8.20;99.90
44271;DHT22;29963;44.594;11.368;2024-02-14T01:24:19;8.20;99.90
44271;DHT22;29963;44.594;11.368;2024-02-14T01:26:45;8.20;99.90
44271;DHT22;29963;44.594;11.368;2024-02-14T01:29:10;8.10;99.90
44271;DHT22;29963;44.594;11.368;2024-02-14T01:31:36;8.10;99.90
44271;DHT22;29963;44.594;11.368;2024-02-14T01:34:02;9.70;99.90
44271;DHT22;29963;44.594;11.368;2024-02-14T01:36:31;8.30;99.90
44271;DHT22;29963;44.594;11.368;2024-02-14T01:38:56;8.40;99.90
44271;DHT22;29963;44.594;11.368;2024-02-14T01:41:22;8.40;99.90
44271;DHT22;29963;44.594;11.368;2024-02-14T01:43:49;8.50;99.90
44271;DHT22;29963;44.594;11.368;2024-02-14T01:46:14;8.50;99.90
44271;DHT22;29963;44.594;11.368;2024-02-14T01:48:41;8.40;99.90
44271;DHT22;29963;44.594;11.368;2024-02-14T01:51:09;8.40;99.90
44271;DHT22;29963;44.594;11.368;2024-02-14T01:53:39;8.40;99.90
44271;DHT22;29963;44.594;11.368;2024-02-14T01:56:05;8.40;99.90
44271;DHT22;29963;44.594;11.368;2024-02-14T01:58:33;8.40;99.90
44271;DHT22;29963;44.594;11.368;2024-02-14T02:00:59;8.30;99.90
44271;DHT22;29963;44.594;11.368;2024-02-14T02:03:27;8.20;99.90
44271;DHT22;29963;44.594;11.368;2024-02-14T02:05:53;8.20;99.90
44271;DHT22;29963;44.594;11.368;2024-02-14T02:08:20;8.30;99.90
44271;DHT22;29963;44.594;11.368;2024-02-14T02:10:46;8.30;99.90
44271;DHT22;29963;44.594;11.368;2024-02-14T02:13:12;8.40;99.90
44271;DHT22;29963;44.594;11.368;2024-02-14T02:15:38;8.40;99.90
44271;DHT22;29963;44.594;11.368;2024-02-14T02:18:04;8.30;99.90
44271;DHT22;29963;44.594;11.368;2024-02-14T02:20:31;8.10;99.90
44271;DHT22;29963;44.594;11.368;2024-02-14T02:22:58;8.00;99.90
44271;DHT22;29963;44.594;11.368;2024-02-14T02:25:25;7.90;99.90
44271;DHT22;29963;44.594;11.368;2024-02-14T02:27:52;7.80;99.90
44271;DHT22;29963;44.594;11.368;2024-02-14T02:30:22;7.80;99.90
44271;DHT22;29963;44.594;11.368;2024-02-14T02:32:48;7.90;99.90
44271;DHT22;29963;44.594;11.368;2024-02-14T02:35:13;7.80;99.90
44271;DHT22;29963;44.594;11.368;2024-02-14T02:37:39;7.80;99.90
44271;DHT22;29963;44.594;11.368;2024-02-14T02:40:05;7.70;99.90
44271;DHT22;29963;44.594;11.368;2024-02-14T02:42:31;7.60;99.90
44271;DHT22;29963;44.594;11.368;2024-02-14T02:44:56;7.60;99.90
44271;DHT22;29963;44.594;11.368;2024-02-14T02:47:22;7.60;99.90
44271;DHT22;29963;44.594;11.368;2024-02-14T02:49:47;7.60;99.90
44271;DHT22;29963;44.594;11.368;2024-02-14T02:52:13;7.60;99.90
44271;DHT22;29963;44.594;11.368;2024-02-14T02:54:40;7.60;99.90
44271;DHT22;29963;44.594;11.368;2024-02-14T02:57:07;7.60;99.90
44271;DHT22;29963;44.594;11.368;2024-02-14T02:59:34;7.60;99.90
44271;DHT22;29963;44.594;11.368;2024-02-14T03:02:00;7.60;99.90
44271;DHT22;29963;44.594;11.368;2024-02-14T03:04:26;7.50;99.90
44271;DHT22;29963;44.594;11.368;2024-02-14T03:06:52;7.50;99.90
44271;DHT22;29963;44.594;11.368;2024-02-14T03:09:17;7.50;99.90
44271;DHT22;29963;44.594;11.368;2024-02-14T03:11:46;7.40;99.90
44271;DHT22;29963;44.594;11.368;2024-02-14T03:14:15;7.40;99.90
44271;DHT22;29963;44.594;11.368;2024-02-14T03:16:41;7.50;99.90
44271;DHT22;29963;44.594;11.368;2024-02-14T03:19:06;7.50;99.90
44271;DHT22;29963;44.594;11.368;2024-02-14T03:21:32;7.40;99.90
44271;DHT22;29963;44.594;11.368;2024-02-14T03:23:58;7.30;99.90
44271;DHT22;29963;44.594;11.368;2024-02-14T03:26:24;7.30;99.90
44271;DHT22;29963;44.594;11.368;2024-02-14T03:28:49;7.30;99.90
44271;DHT22;29963;44.594;11.368;2024-02-14T03:31:15;7.30;99.90
44271;DHT22;29963;44.594;11.368;2024-02-14T03:33:41;7.40;99.90
44271;DHT22;29963;44.594;11.368;2024-02-14T03:36:07;7.40;99.90
44271;DHT22;29963;44.594;11.368;2024-02-14T03:38:34;7.40;99.90
44271;DHT22;29963;44.594;11.368;2024-02-14T03:41:00;7.30;99.90
44271;DHT22;29963;44.594;11.368;2024-02-14T03:43:25;7.30;99.90
44271;DHT22;29963;44.594;11.368;2024-02-14T03:45:51;7.30;99.90
44271;DHT22;29963;44.594;11.368;2024-02-14T03:48:20;7.30;99.90
44271;DHT22;29963;44.594;11.368;2024-02-14T03:50:46;7.20;99.90
44271;DHT22;29963;44.594;11.368;2024-02-14T03:53:11;7.30;99.90
44271;DHT22;29963;44.594;11.368;2024-02-14T03:55:37;7.30;99.90
44271;DHT22;29963;44.594;11.368;2024-02-14T03:58:03;7.20;99.90
44271;DHT22;29963;44.594;11.368;2024-02-14T04:00:30;7.20;99.90
44271;DHT22;29963;44.594;11.368;2024-02-14T04:02:56;7.20;99.90
44271;DHT22;29963;44.594;11.368;2024-02-14T04:05:28;7.20;99.90
44271;DHT22;29963;44.594;11.368;2024-02-14T04:07:54;7.20;99.90
44271;DHT22;29963;44.594;11.368;2024-02-14T04:10:20;7.20;99.90
44271;DHT22;29963;44.594;11.368;2024-02-14T04:12:47;7.20;99.90
44271;DHT22;29963;44.594;11.368;2024-02-14T04:15:15;7.20;99.90
44271;DHT22;29963;44.594;11.368;2024-02-14T04:17:41;7.20;99.90
44271;DHT22;29963;44.594;11.368;2024-02-14T04:20:07;7.30;99.90
44271;DHT22;29963;44.594;11.368;2024-02-14T04:22:33;7.20;99.90
44271;DHT22;29963;44.594;11.368;2024-02-14T04:24:58;7.20;99.90
44271;DHT22;29963;44.594;11.368;2024-02-14T04:27:24;7.30;99.90
44271;DHT22;29963;44.594;11.368;2024-02-14T04:29:50;7.40;99.90
44271;DHT22;29963;44.594;11.368;2024-02-14T04:32:16;7.40;99.90
44271;DHT22;29963;44.594;11.368;2024-02-14T04:34:42;7.50;99.90
44271;DHT22;29963;44.594;11.368;2024-02-14T04:37:08;7.50;99.90
44271;DHT22;29963;44.594;11.368;2024-02-14T04:39:38;7.60;99.90
44271;DHT22;29963;44.594;11.368;2024-02-14T04:42:04;7.60;99.90
44271;DHT22;29963;44.594;11.368;2024-02-14T04:44:30;7.60;99.90
44271;DHT22;29963;44.594;11.368;2024-02-14T04:46:57;7.70;99.90
44271;DHT22;29963;44.594;11.368;2024-02-14T04:49:24;7.80;99.90
44271;DHT22;29963;44.594;11.368;2024-02-14T04:51:51;7.80;99.90
44271;DHT22;29963;44.594;11.368;2024-02-14T04:54:16;7.80;99.90
44271;DHT22;29963;44.594;11.368;2024-02-14T04:56:42;7.80;99.90
44271;DHT22;29963;44.594;11.368;2024-02-14T04:59:08;7.80;99.90
44271;DHT22;29963;44.594;11.368;2024-02-14T05:01:34;7.80;99.90
44271;DHT22;29963;44.594;11.368;2024-02-14T05:04:00;7.90;99.90
44271;DHT22;29963;44.594;11.368;2024-02-14T05:06:26;7.90;99.90
44271;DHT22;29963;44.594;11.368;2024-02-14T05:08:51;7.90;99.90
44271;DHT22;29963;44.594;11.368;2024-02-14T05:11:17;7.90;99.90
44271;DHT22;29963;44.594;11.368;2024-02-14T05:13:44;7.90;99.90
44271;DHT22;29963;44.594;11.368;2024-02-14T05:16:09;7.90;99.90
44271;DHT22;29963;44.594;11.368;2024-02-14T05:18:39;7.90;99.90
44271;DHT22;29963;44.594;11.368;2024-02-14T05:21:06;7.80;99.90
44271;DHT22;29963;44.594;11.368;2024-02-14T05:23:32;7.70;99.90
44271;DHT22;29963;44.594;11.368;2024-02-14T05:25:57;7.60;99.90
44271;DHT22;29963;44.594;11.368;2024-02-14T05:28:23;7.60;99.90
44271;DHT22;29963;44.594;11.368;2024-02-14T05:30:48;7.50;99.90
44271;DHT22;29963;44.594;11.368;2024-02-14T05:33:14;7.60;99.90
44271;DHT22;29963;44.594;11.368;2024-02-14T05:35:40;7.60;99.90
44271;DHT22;29963;44.594;11.368;2024-02-14T05:38:05;7.50;99.90
44271;DHT22;29963;44.594;11.368;2024-02-14T05:40:33;7.50;99.90
44271;DHT22;29963;44.594;11.368;2024-02-14T05:42:59;7.60;99.90
44271;DHT22;29963;44.594;11.368;2024-02-14T05:45:24;7.60;99.90
44271;DHT22;29963;44.594;11.368;2024-02-14T05:47:50;7.60;99.90
44271;DHT22;29963;44.594;11.368;2024-02-14T05:50:15;7.50;99.90
44271;DHT22;29963;44.594;11.368;2024-02-14T05:52:41;7.50;99.90
44271;DHT22;29963;44.594;11.368;2024-02-14T05:55:07;7.50;99.90
44271;DHT22;29963;44.594;11.368;2024-02-14T05:57:34;7.50;99.90
44271;DHT22;29963;44.594;11.368;2024-02-14T06:00:00;7.50;99.90
44271;DHT22;29963;44.594;11.368;2024-02-14T06:02:25;7.50;99.90
44271;DHT22;29963;44.594;11.368;2024-02-14T06:04:51;7.60;99.90
44271;DHT22;29963;44.594;11.368;2024-02-14T06:07:16;7.50;99.90
44271;DHT22;29963;44.594;11.368;2024-02-14T06:09:42;7.40;99.90
44271;DHT22;29963;44.594;11.368;2024-02-14T06:12:08;7.30;99.90
44271;DHT22;29963;44.594;11.368;2024-02-14T06:14:33;7.30;99.90
44271;DHT22;29963;44.594;11.368;2024-02-14T06:17:00;7.30;99.90
44271;DHT22;29963;44.594;11.368;2024-02-14T06:19:27;7.30;99.90
44271;DHT22;29963;44.594;11.368;2024-02-14T06:21:53;7.30;99.90
44271;DHT22;29963;44.594;11.368;2024-02-14T06:24:18;7.30;99.90
44271;DHT22;29963;44.594;11.368;2024-02-14T06:26:45;7.30;99.90
44271;DHT22;29963;44.594;11.368;2024-02-14T06:29:10;7.30;99.90
44271;DHT22;29963;44.594;11.368;2024-02-14T06:31:36;7.30;99.90
44271;DHT22;29963;44.594;11.368;2024-02-14T06:34:02;7.30;99.90
44271;DHT22;29963;44.594;11.368;2024-02-14T06:36:27;7.30;99.90
44271;DHT22;29963;44.594;11.368;2024-02-14T06:38:53;7.30;99.90
44271;DHT22;29963;44.594;11.368;2024-02-14T06:41:19;7.30;99.90
44271;DHT22;29963;44.594;11.368;2024-02-14T06:43:46;7.30;99.90
44271;DHT22;29963;44.594;11.368;2024-02-14T06:46:11;7.30;99.90
44271;DHT22;29963;44.594;11.368;2024-02-14T06:48:37;7.20;99.90
44271;DHT22;29963;44.594;11.368;2024-02-14T06:51:06;7.10;99.90
44271;DHT22;29963;44.594;11.368;2024-02-14T06:53:31;7.10;99.90
44271;DHT22;29963;44.594;11.368;2024-02-14T06:55:57;7.10;99.90
44271;DHT22;29963;44.594;11.368;2024-02-14T06:58:23;7.10;99.90
44271;DHT22;29963;44.594;11.368;2024-02-14T07:00:48;7.20;99.90
44271;DHT22;29963;44.594;11.368;2024-02-14T07:03:15;7.10;99.90
44271;DHT22;29963;44.594;11.368;2024-02-14T07:05:41;7.20;99.90
44271;DHT22;29963;44.594;11.368;2024-02-14T07:08:07;7.30;99.90
44271;DHT22;29963;44.594;11.368;2024-02-14T07:10:33;7.30;99.90
44271;DHT22;29963;44.594;11.368;2024-02-14T07:12:59;7.40;99.90
44271;DHT22;29963;44.594;11.368;2024-02-14T07:15:24;7.50;99.90
44271;DHT22;29963;44.594;11.368;2024-02-14T07:17:56;7.50;99.90
44271;DHT22;29963;44.594;11.368;2024-02-14T07:20:24;7.60;99.90
44271;DHT22;29963;44.594;11.368;2024-02-14T07:22:53;7.70;99.90
44271;DHT22;29963;44.594;11.368;2024-02-14T07:25:21;7.80;99.90
44271;DHT22;29963;44.594;11.368;2024-02-14T07:27:47;7.80;99.90
44271;DHT22;29963;44.594;11.368;2024-02-14T07:30:15;7.90;99.90
44271;DHT22;29963;44.594;11.368;2024-02-14T07:32:41;8.00;99.90
44271;DHT22;29963;44.594;11.368;2024-02-14T07:35:07;8.00;99.90
44271;DHT22;29963;44.594;11.368;2024-02-14T07:37:33;8.00;99.90
44271;DHT22;29963;44.594;11.368;2024-02-14T07:39:58;8.00;99.90
44271;DHT22;29963;44.594;11.368;2024-02-14T07:42:24;8.00;99.90
44271;DHT22;29963;44.594;11.368;2024-02-14T07:44:49;8.00;99.90
44271;DHT22;29963;44.594;11.368;2024-02-14T07:47:15;8.00;99.90
44271;DHT22;29963;44.594;11.368;2024-02-14T07:49:40;7.90;99.90
44271;DHT22;29963;44.594;11.368;2024-02-14T07:52:06;8.00;99.90
44271;DHT22;29963;44.594;11.368;2024-02-14T07:54:32;8.00;99.90
44271;DHT22;29963;44.594;11.368;2024-02-14T07:56:58;8.10;99.90
44271;DHT22;29963;44.594;11.368;2024-02-14T07:59:23;8.10;99.90
44271;DHT22;29963;44.594;11.368;2024-02-14T08:01:49;8.20;99.90
44271;DHT22;29963;44.594;11.368;2024-02-14T08:04:15;8.30;99.90
44271;DHT22;29963;44.594;11.368;2024-02-14T08:06:41;8.30;99.90
44271;DHT22;29963;44.594;11.368;2024-02-14T08:09:06;8.30;99.90
44271;DHT22;29963;44.594;11.368;2024-02-14T08:11:35;8.30;99.90
44271;DHT22;29963;44.594;11.368;2024-02-14T08:14:01;8.40;99.90
44271;DHT22;29963;44.594;11.368;2024-02-14T08:16:27;8.50;99.90
44271;DHT22;29963;44.594;11.368;2024-02-14T08:18:53;8.60;99.90
44271;DHT22;29963;44.594;11.368;2024-02-14T08:21:27;8.60;99.90
44271;DHT22;29963;44.594;11.368;2024-02-14T08:23:53;8.70;99.90
44271;DHT22;29963;44.594;11.368;2024-02-14T08:26:23;8.70;99.90
44271;DHT22;29963;44.594;11.368;2024-02-14T08:28:49;8.80;99.90
44271;DHT22;29963;44.594;11.368;2024-02-14T08:31:15;8.90;99.90
44271;DHT22;29963;44.594;11.368;2024-02-14T08:33:41;9.00;99.90
44271;DHT22;29963;44.594;11.368;2024-02-14T08:36:07;9.10;99.90
44271;DHT22;29963;44.594;11.368;2024-02-14T08:38:33;9.20;99.90
44271;DHT22;29963;44.594;11.368;2024-02-14T08:41:03;9.30;99.90
44271;DHT22;29963;44.594;11.368;2024-02-14T08:43:29;9.40;99.90
44271;DHT22;29963;44.594;11.368;2024-02-14T08:45:55;9.40;99.90
44271;DHT22;29963;44.594;11.368;2024-02-14T08:48:22;9.50;99.90
44271;DHT22;29963;44.594;11.368;2024-02-14T08:50:48;9.50;99.90
44271;DHT22;29963;44.594;11.368;2024-02-14T08:53:13;9.60;99.90
44271;DHT22;29963;44.594;11.368;2024-02-14T08:55:42;9.60;99.90
44271;DHT22;29963;44.594;11.368;2024-02-14T08:58:08;9.70;99.90
44271;DHT22;29963;44.594;11.368;2024-02-14T09:00:37;9.80;99.90
44271;DHT22;29963;44.594;11.368;2024-02-14T09:03:03;9.90;99.90
44271;DHT22;29963;44.594;11.368;2024-02-14T09:05:29;9.90;99.90
44271;DHT22;29963;44.594;11.368;2024-02-14T09:07:54;10.00;99.90
44271;DHT22;29963;44.594;11.368;2024-02-14T09:10:20;10.10;99.90
44271;DHT22;29963;44.594;11.368;2024-02-14T09:12:47;10.10;99.90
44271;DHT22;29963;44.594;11.368;2024-02-14T09:15:15;10.20;99.90
44271;DHT22;29963;44.594;11.368;2024-02-14T09:17:41;10.20;99.90
44271;DHT22;29963;44.594;11.368;2024-02-14T09:20:09;10.30;99.90
44271;DHT22;29963;44.594;11.368;2024-02-14T09:22:35;10.30;99.90
44271;DHT22;29963;44.594;11.368;2024-02-14T09:25:07;10.40;99.90
44271;DHT22;29963;44.594;11.368;2024-02-14T09:27:34;10.50;99.90
44271;DHT22;29963;44.594;11.368;2024-02-14T09:30:01;10.50;99.90
44271;DHT22;29963;44.594;11.368;2024-02-14T09:32:29;10.60;99.90
44271;DHT22;29963;44.594;11.368;2024-02-14T09:34:55;10.60;99.90
44271;DHT22;29963;44.594;11.368;2024-02-14T09:37:21;10.60;99.90
44271;DHT22;29963;44.594;11.368;2024-02-14T09:39:46;10.60;99.90
44271;DHT22;29963;44.594;11.368;2024-02-14T09:42:14;10.80;99.90
44271;DHT22;29963;44.594;11.368;2024-02-14T09:44:41;10.80;99.90
44271;DHT22;29963;44.594;11.368;2024-02-14T09:47:09;10.80;99.90
44271;DHT22;29963;44.594;11.368;2024-02-14T09:49:35;10.90;99.90
44271;DHT22;29963;44.594;11.368;2024-02-14T09:52:02;11.00;99.90
44271;DHT22;29963;44.594;11.368;2024-02-14T09:54:29;11.10;99.90
44271;DHT22;29963;44.594;11.368;2024-02-14T09:56:58;11.10;99.90
44271;DHT22;29963;44.594;11.368;2024-02-14T09:59:24;11.10;99.90
44271;DHT22;29963;44.594;11.368;2024-02-14T10:01:49;11.20;99.90
44271;DHT22;29963;44.594;11.368;2024-02-14T10:04:16;11.20;99.90
44271;DHT22;29963;44.594;11.368;2024-02-14T10:06:44;11.30;99.90
44271;DHT22;29963;44.594;11.368;2024-02-14T10:09:10;11.40;99.90
44271;DHT22;29963;44.594;11.368;2024-02-14T10:11:36;11.40;99.90
44271;DHT22;29963;44.594;11.368;2024-02-14T10:14:04;11.40;99.90
44271;DHT22;29963;44.594;11.368;2024-02-14T10:16:34;11.50;99.90
44271;DHT22;29963;44.594;11.368;2024-02-14T10:19:00;11.50;99.90
44271;DHT22;29963;44.594;11.368;2024-02-14T10:21:26;11.60;99.90
44271;DHT22;29963;44.594;11.368;2024-02-14T10:23:53;11.70;99.90
44271;DHT22;29963;44.594;11.368;2024-02-14T10:26:22;11.70;99.90
44271;DHT22;29963;44.594;11.368;2024-02-14T10:28:48;11.80;99.90
44271;DHT22;29963;44.594;11.368;2024-02-14T10:31:14;11.90;99.90
44271;DHT22;29963;44.594;11.368;2024-02-14T10:33:41;11.90;99.90
44271;DHT22;29963;44.594;11.368;2024-02-14T10:36:07;11.90;99.90
44271;DHT22;29963;44.594;11.368;2024-02-14T10:38:34;11.90;99.90
44271;DHT22;29963;44.594;11.368;2024-02-14T10:41:01;12.00;99.90
44271;DHT22;29963;44.594;11.368;2024-02-14T10:43:27;12.20;99.90
44271;DHT22;29963;44.594;11.368;2024-02-14T10:45:54;12.20;99.90
44271;DHT22;29963;44.594;11.368;2024-02-14T10:48:22;12.10;99.90
44271;DHT22;29963;44.594;11.368;2024-02-14T10:50:53;12.30;99.90
44271;DHT22;29963;44.594;11.368;2024-02-14T10:53:19;12.40;99.90
44271;DHT22;29963;44.594;11.368;2024-02-14T10:55:49;12.40;99.90
44271;DHT22;29963;44.594;11.368;2024-02-14T10:58:17;12.40;99.90
44271;DHT22;29963;44.594;11.368;2024-02-14T11:00:44;12.50;99.90
44271;DHT22;29963;44.594;11.368;2024-02-14T11:03:10;12.60;99.90
44271;DHT22;29963;44.594;11.368;2024-02-14T11:05:45;12.60;99.90
44271;DHT22;29963;44.594;11.368;2024-02-14T11:08:14;12.60;99.90
44271;DHT22;29963;44.594;11.368;2024-02-14T11:10:40;12.60;99.90
44271;DHT22;29963;44.594;11.368;2024-02-14T11:13:12;12.70;99.90
44271;DHT22;29963;44.594;11.368;2024-02-14T11:15:44;12.80;99.90
44271;DHT22;29963;44.594;11.368;2024-02-14T11:18:10;12.80;99.90
44271;DHT22;29963;44.594;11.368;2024-02-14T11:20:36;12.80;99.90
44271;DHT22;29963;44.594;11.368;2024-02-14T11:23:02;12.90;99.90
44271;DHT22;29963;44.594;11.368;2024-02-14T11:25:35;13.00;99.90
44271;DHT22;29963;44.594;11.368;2024-02-14T11:28:15;13.00;99.90
44271;DHT22;29963;44.594;11.368;2024-02-14T11:30:43;13.10;99.90
44271;DHT22;29963;44.594;11.368;2024-02-14T11:33:21;13.20;99.90
44271;DHT22;29963;44.594;11.368;2024-02-14T11:35:48;13.30;99.90
44271;DHT22;29963;44.594;11.368;2024-02-14T11:38:17;13.30;99.90
44271;DHT22;29963;44.594;11.368;2024-02-14T11:40:43;13.30;99.90
44271;DHT22;29963;44.594;11.368;2024-02-14T11:45:39;13.40;99.90
44271;DHT22;29963;44.594;11.368;2024-02-14T11:48:09;13.40;99.90
44271;DHT22;29963;44.594;11.368;2024-02-14T11:50:35;13.40;99.90
44271;DHT22;29963;44.594;11.368;2024-02-14T11:53:01;13.50;99.90
44271;DHT22;29963;44.594;11.368;2024-02-14T11:55:30;13.60;99.90
44271;DHT22;29963;44.594;11.368;2024-02-14T11:57:57;13.60;99.90
44271;DHT22;29963;44.594;11.368;2024-02-14T12:00:23;13.60;99.90
44271;DHT22;29963;44.594;11.368;2024-02-14T12:02:51;13.60;99.90
44271;DHT22;29963;44.594;11.368;2024-02-14T12:05:19;13.60;99.90
44271;DHT22;29963;44.594;11.368;2024-02-14T12:07:45;13.70;99.90
44271;DHT22;29963;44.594;11.368;2024-02-14T12:10:11;13.70;99.90
44271;DHT22;29963;44.594;11.368;2024-02-14T12:12:38;13.70;99.90
44271;DHT22;29963;44.594;11.368;2024-02-14T12:15:04;13.70;99.90
44271;DHT22;29963;44.594;11.368;2024-02-14T12:17:31;13.80;99.90
44271;DHT22;29963;44.594;11.368;2024-02-14T12:20:08;13.90;99.90
44271;DHT22;29963;44.594;11.368;2024-02-14T12:22:39;13.90;99.90
44271;DHT22;29963;44.594;11.368;2024-02-14T12:25:06;14.00;99.90
44271;DHT22;29963;44.594;11.368;2024-02-14T12:27:33;14.00;99.90
44271;DHT22;29963;44.594;11.368;2024-02-14T12:30:06;14.10;99.90
44271;DHT22;29963;44.594;11.368;2024-02-14T12:32:32;14.10;99.90
44271;DHT22;29963;44.594;11.368;2024-02-14T12:35:01;14.10;99.90
44271;DHT22;29963;44.594;11.368;2024-02-14T12:37:26;14.10;99.90
44271;DHT22;29963;44.594;11.368;2024-02-14T12:39:52;14.20;99.90
44271;DHT22;29963;44.594;11.368;2024-02-14T12:42:19;14.30;99.90
44271;DHT22;29963;44.594;11.368;2024-02-14T12:44:51;14.40;99.90
44271;DHT22;29963;44.594;11.368;2024-02-14T12:47:17;14.50;99.90
44271;DHT22;29963;44.594;11.368;2024-02-14T12:49:43;14.50;99.90
44271;DHT22;29963;44.594;11.368;2024-02-14T12:52:09;14.50;99.90
44271;DHT22;29963;44.594;11.368;2024-02-14T12:54:34;14.60;99.90
44271;DHT22;29963;44.594;11.368;2024-02-14T12:57:00;14.60;99.90
44271;DHT22;29963;44.594;11.368;2024-02-14T12:59:26;14.70;99.90
44271;DHT22;29963;44.594;11.368;2024-02-14T13:01:52;14.60;99.90
44271;DHT22;29963;44.594;11.368;2024-02-14T13:04:17;14.60;99.90
44271;DHT22;29963;44.594;11.368;2024-02-14T13:06:43;14.70;99.90
44271;DHT22;29963;44.594;11.368;2024-02-14T13:09:08;14.70;99.90
44271;DHT22;29963;44.594;11.368;2024-02-14T13:11:35;14.80;99.90
44271;DHT22;29963;44.594;11.368;2024-02-14T13:14:01;14.80;99.90
44271;DHT22;29963;44.594;11.368;2024-02-14T13:16:26;14.90;99.90
44271;DHT22;29963;44.594;11.368;2024-02-14T13:18:52;15.00;99.90
44271;DHT22;29963;44.594;11.368;2024-02-14T13:21:21;15.10;99.90
44271;DHT22;29963;44.594;11.368;2024-02-14T13:23:47;15.10;99.90
44271;DHT22;29963;44.594;11.368;2024-02-14T13:26:13;15.20;99.90
44271;DHT22;29963;44.594;11.368;2024-02-14T13:28:39;15.30;99.90
44271;DHT22;29963;44.594;11.368;2024-02-14T13:31:06;15.40;99.90
44271;DHT22;29963;44.594;11.368;2024-02-14T13:33:31;15.40;99.90
44271;DHT22;29963;44.594;11.368;2024-02-14T13:35:57;15.50;99.90
44271;DHT22;29963;44.594;11.368;2024-02-14T13:38:23;15.60;99.90
44271;DHT22;29963;44.594;11.368;2024-02-14T13:40:48;17.00;99.90
44271;DHT22;29963;44.594;11.368;2024-02-14T13:43:14;15.80;99.90
44271;DHT22;29963;44.594;11.368;2024-02-14T13:45:44;15.80;99.90
44271;DHT22;29963;44.594;11.368;2024-02-14T13:48:10;16.00;99.90
44271;DHT22;29963;44.594;11.368;2024-02-14T13:50:36;16.20;99.90
44271;DHT22;29963;44.594;11.368;2024-02-14T13:53:03;16.60;99.90
44271;DHT22;29963;44.594;11.368;2024-02-14T13:55:29;16.50;99.90
44271;DHT22;29963;44.594;11.368;2024-02-14T13:57:55;16.80;99.90
44271;DHT22;29963;44.594;11.368;2024-02-14T14:00:20;17.20;99.90
44271;DHT22;29963;44.594;11.368;2024-02-14T14:02:46;17.20;99.90
44271;DHT22;29963;44.594;11.368;2024-02-14T14:05:12;17.30;99.90
44271;DHT22;29963;44.594;11.368;2024-02-14T14:07:41;17.70;99.90
44271;DHT22;29963;44.594;11.368;2024-02-14T14:10:08;17.70;99.90
44271;DHT22;29963;44.594;11.368;2024-02-14T14:12:37;18.00;99.90
44271;DHT22;29963;44.594;11.368;2024-02-14T14:15:04;18.00;99.90
44271;DHT22;29963;44.594;11.368;2024-02-14T14:17:30;18.20;99.90
44271;DHT22;29963;44.594;11.368;2024-02-14T14:19:56;18.60;99.90
44271;DHT22;29963;44.594;11.368;2024-02-14T14:22:21;18.60;99.90
44271;DHT22;29963;44.594;11.368;2024-02-14T14:24:47;18.80;99.90
44271;DHT22;29963;44.594;11.368;2024-02-14T14:27:13;19.10;99.90
44271;DHT22;29963;44.594;11.368;2024-02-14T14:29:40;19.20;99.90
44271;DHT22;29963;44.594;11.368;2024-02-14T14:32:09;20.10;99.90
44271;DHT22;29963;44.594;11.368;2024-02-14T14:34:35;21.60;99.90
44271;DHT22;29963;44.594;11.368;2024-02-14T14:37:01;23.50;99.90
44271;DHT22;29963;44.594;11.368;2024-02-14T14:39:27;25.40;92.20
44271;DHT22;29963;44.594;11.368;2024-02-14T14:41:53;25.40;92.40
44271;DHT22;29963;44.594;11.368;2024-02-14T14:44:24;25.60;91.20
44271;DHT22;29963;44.594;11.368;2024-02-14T14:46:50;26.20;87.80
44271;DHT22;29963;44.594;11.368;2024-02-14T14:49:16;26.20;88.40
44271;DHT22;29963;44.594;11.368;2024-02-14T14:51:42;26.40;86.90
44271;DHT22;29963;44.594;11.368;2024-02-14T14:54:08;26.30;83.40
44271;DHT22;29963;44.594;11.368;2024-02-14T14:56:34;26.30;84.20
44271;DHT22;29963;44.594;11.368;2024-02-14T14:58:59;26.10;83.70
44271;DHT22;29963;44.594;11.368;2024-02-14T15:01:31;26.20;84.30
44271;DHT22;29963;44.594;11.368;2024-02-14T15:03:59;26.60;82.20
44271;DHT22;29963;44.594;11.368;2024-02-14T15:06:25;26.50;81.40
44271;DHT22;29963;44.594;11.368;2024-02-14T15:08:50;26.40;81.00
44271;DHT22;29963;44.594;11.368;2024-02-14T15:11:16;26.60;80.90
44271;DHT22;29963;44.594;11.368;2024-02-14T15:13:44;26.70;78.20
44271;DHT22;29963;44.594;11.368;2024-02-14T15:16:11;26.70;79.20
44271;DHT22;29963;44.594;11.368;2024-02-14T15:18:38;26.80;78.10
44271;DHT22;29963;44.594;11.368;2024-02-14T15:21:05;26.90;78.90
44271;DHT22;29963;44.594;11.368;2024-02-14T15:23:33;27.30;77.80